Time;durP1;ratioP1;P1;durP2;ratioP2;P2;SDS_P1;SDS_P2;PMS_P1;PMS_P2;Temp;Humidity;BMP_temperature;BMP_pressure;BME280_temperature;BME280_humidity;BME280_pressure;Samples;Min_cycle;Max_cycle;Signal;HPM_P1;HPM_P2
2022/05/16 00:01:47;;;;;;;5.55;4.00;;;15.70;99.90;;;;;;5096449;28;20080;-72
2022/05/16 00:04:12;;;;;;;6.80;4.10;;;15.60;99.90;;;;;;5114986;28;20490;-72
2022/05/16 00:06:38;;;;;;;9.73;3.85;;;15.50;99.90;;;;;;5114825;28;20417;-72
2022/05/16 00:09:04;;;;;;;6.40;3.72;;;15.50;99.90;;;;;;5114593;28;20027;-72
2022/05/16 00:11:30;;;;;;;5.10;3.40;;;15.50;99.90;;;;;;5114578;28;20084;-73
2022/05/16 00:13:56;;;;;;;4.22;3.15;;;15.50;99.90;;;;;;5114536;28;20388;-73
2022/05/16 00:16:22;;;;;;;5.43;3.72;;;15.50;99.90;;;;;;5114609;28;20035;-73
2022/05/16 00:18:48;;;;;;;5.65;3.45;;;15.50;99.90;;;;;;5114494;28;20024;-73
2022/05/16 00:21:14;;;;;;;5.43;3.90;;;15.50;99.90;;;;;;5114329;28;20485;-73
2022/05/16 00:23:39;;;;;;;7.05;4.05;;;15.60;99.90;;;;;;5114430;28;20023;-72
2022/05/16 00:26:05;;;;;;;5.95;4.03;;;15.50;99.90;;;;;;5114486;28;20379;-72
2022/05/16 00:28:30;;;;;;;6.07;3.55;;;15.50;99.90;;;;;;5114359;28;20046;-72
2022/05/16 00:30:56;;;;;;;6.70;3.45;;;15.30;99.90;;;;;;5114476;28;20020;-72
2022/05/16 00:33:22;;;;;;;4.90;3.30;;;15.20;99.90;;;;;;5114205;28;20471;-73
2022/05/16 00:35:47;;;;;;;5.55;3.60;;;15.20;99.90;;;;;;5114516;28;20084;-72
2022/05/16 00:38:13;;;;;;;9.60;4.00;;;15.10;99.90;;;;;;5095761;28;20031;-72
2022/05/16 00:40:39;;;;;;;7.35;3.72;;;15.10;99.90;;;;;;5114322;28;20031;-73
2022/05/16 00:43:09;;;;;;;6.95;4.03;;;15.00;99.90;;;;;;5114352;28;20031;-73
2022/05/16 00:45:35;;;;;;;4.30;3.47;;;14.90;99.90;;;;;;5114109;28;20026;-72
2022/05/16 00:48:01;;;;;;;5.55;3.35;;;15.00;99.90;;;;;;5114045;28;20375;-73
2022/05/16 00:50:28;;;;;;;5.43;3.85;;;15.00;99.90;;;;;;5114331;28;20028;-73
2022/05/16 00:52:55;;;;;;;7.10;3.78;;;15.00;99.90;;;;;;5113967;28;20023;-73
2022/05/16 00:55:32;;;;;;;6.30;3.53;;;15.00;99.90;;;;;;5114075;28;20031;-73
2022/05/16 00:58:03;;;;;;;5.97;3.65;;;14.90;99.90;;;;;;5113831;28;20032;-73
2022/05/16 01:00:32;;;;;;;5.45;3.85;;;14.80;99.90;;;;;;5095942;28;20383;-73
2022/05/16 01:05:51;;;;;;;6.00;3.65;;;14.60;99.90;;;;;;5114104;28;20390;-72
2022/05/16 01:08:22;;;;;;;6.85;3.90;;;14.40;99.90;;;;;;5113785;28;20045;-73
2022/05/16 01:10:48;;;;;;;;;;;14.30;99.90;;;;;;5114518;28;20020;-73
2022/05/16 01:13:14;;;;;;;6.07;3.80;;;14.30;99.90;;;;;;5114079;28;19960;-73
2022/05/16 01:15:46;;;;;;;7.70;3.60;;;14.30;99.90;;;;;;5113921;28;20038;-72
2022/05/16 01:18:15;;;;;;;6.30;3.72;;;14.30;99.90;;;;;;5113919;28;20104;-73
2022/05/16 01:20:40;;;;;;;4.90;3.65;;;14.40;99.90;;;;;;5114033;28;20452;-73
2022/05/16 01:23:06;;;;;;;5.15;3.30;;;14.40;99.90;;;;;;5113574;28;20028;-74
2022/05/16 01:25:32;;;;;;;4.15;3.40;;;14.50;99.90;;;;;;5113499;28;20065;-73
2022/05/16 01:28:04;;;;;;;5.95;3.40;;;14.50;99.90;;;;;;5113774;28;20076;-74
2022/05/16 01:30:37;;;;;;;4.65;3.15;;;14.60;99.90;;;;;;5113636;28;20027;-73
2022/05/16 01:33:03;;;;;;;5.43;3.17;;;14.60;99.90;;;;;;5112881;28;20019;-73
2022/05/16 01:35:31;;;;;;;4.90;3.13;;;14.50;99.90;;;;;;5094556;28;20038;-72
2022/05/16 01:40:43;;;;;;;6.18;3.70;;;14.60;99.90;;;;;;5113413;28;20031;-73
2022/05/16 01:43:10;;;;;;;6.20;3.45;;;14.50;99.90;;;;;;5113485;28;20028;-73
2022/05/16 01:45:37;;;;;;;4.60;3.58;;;14.40;99.90;;;;;;5113426;28;20043;-73
2022/05/16 01:48:03;;;;;;;12.60;8.30;;;14.30;99.90;;;;;;5113492;28;20027;-74
2022/05/16 01:50:30;;;;;;;24.67;13.85;;;14.20;99.90;;;;;;5113408;28;20498;-73
2022/05/16 01:52:55;;;;;;;37.25;18.88;;;14.10;99.90;;;;;;5113378;28;20028;-74
2022/05/16 01:55:21;;;;;;;24.27;12.70;;;14.00;99.90;;;;;;5113821;28;20080;-73
2022/05/16 01:57:47;;;;;;;13.55;7.72;;;14.10;99.90;;;;;;5094785;28;20028;-74
2022/05/16 02:00:14;;;;;;;7.47;5.32;;;14.10;99.90;;;;;;5113315;28;20031;-74
2022/05/16 02:02:42;;;;;;;7.10;4.30;;;14.10;99.90;;;;;;5113280;28;20024;-74
2022/05/16 02:05:14;;;;;;;4.60;3.53;;;14.10;99.90;;;;;;5095042;28;20024;-73
2022/05/16 02:07:40;;;;;;;5.38;3.60;;;14.10;99.90;;;;;;5115457;28;20027;-74
2022/05/16 02:10:09;;;;;;;5.78;3.35;;;14.10;99.90;;;;;;5116966;28;20058;-74
2022/05/16 02:12:35;;;;;;;5.72;3.35;;;14.20;99.90;;;;;;5117027;28;20432;-74
2022/05/16 02:15:03;;;;;;;4.70;3.50;;;14.20;99.90;;;;;;5098832;28;20040;-73
2022/05/16 02:17:29;;;;;;;6.25;4.28;;;14.20;99.90;;;;;;5098361;28;20456;-73
2022/05/16 02:19:54;;;;;;;5.50;4.20;;;14.20;99.90;;;;;;5117068;28;20020;-74
2022/05/16 02:25:05;;;;;;;5.05;3.75;;;14.20;99.90;;;;;;5117017;28;20055;-73
2022/05/16 02:27:31;;;;;;;4.72;3.40;;;14.10;99.90;;;;;;5116513;28;20585;-73
2022/05/16 02:29:57;;;;;;;9.07;4.50;;;14.10;99.90;;;;;;5116511;28;20031;-73
2022/05/16 02:32:23;;;;;;;7.85;3.92;;;14.00;99.90;;;;;;5116389;28;20038;-74
2022/05/16 02:34:49;;;;;;;4.55;3.67;;;14.00;99.90;;;;;;5116670;28;20023;-73
2022/05/16 02:37:15;;;;;;;3.83;3.30;;;13.90;99.90;;;;;;5116216;28;20417;-74
2022/05/16 02:39:45;;;;;;;7.90;4.68;;;13.90;99.90;;;;;;5116908;28;20094;-74
2022/05/16 02:42:14;;;;;;;7.90;4.57;;;13.80;99.90;;;;;;5116489;28;20459;-74
2022/05/16 02:44:44;;;;;;;5.68;3.78;;;13.70;99.90;;;;;;5116189;28;20096;-74
2022/05/16 02:47:15;;;;;;;7.10;4.10;;;13.60;99.90;;;;;;5116106;28;20094;-73
2022/05/16 02:49:40;;;;;;;5.00;3.58;;;13.60;99.90;;;;;;5116175;28;20024;-74
2022/05/16 02:52:06;;;;;;;6.43;3.50;;;13.50;99.90;;;;;;5116380;28;20088;-74
2022/05/16 02:54:32;;;;;;;4.65;3.70;;;13.50;99.90;;;;;;5116086;28;20028;-74
2022/05/16 02:56:58;;;;;;;6.00;3.97;;;13.60;99.90;;;;;;5115996;28;20028;-74
2022/05/16 02:59:26;;;;;;;8.07;4.18;;;13.60;99.90;;;;;;5097571;28;20453;-74
2022/05/16 03:01:52;;;;;;;6.25;3.90;;;13.70;99.90;;;;;;5097598;28;20050;-74
2022/05/16 03:04:17;;;;;;;5.80;3.90;;;13.70;99.90;;;;;;5115877;28;20020;-74
2022/05/16 03:06:43;;;;;;;5.78;3.40;;;13.70;99.90;;;;;;5116210;28;20067;-72
2022/05/16 03:09:09;;;;;;;4.15;3.33;;;13.70;99.90;;;;;;5115737;28;20034;-74
2022/05/16 03:11:35;;;;;;;5.53;3.78;;;13.60;99.90;;;;;;5115741;28;20104;-74
2022/05/16 03:14:01;;;;;;;7.18;4.50;;;13.60;99.90;;;;;;5115927;28;20545;-75
2022/05/16 03:16:26;;;;;;;6.65;4.07;;;13.50;99.90;;;;;;5115479;28;20498;-74
2022/05/16 03:18:52;;;;;;;5.90;4.00;;;13.50;99.90;;;;;;5096108;28;20026;-74
2022/05/16 03:21:19;;;;;;;7.20;4.60;;;13.50;99.90;;;;;;5097300;28;20023;-74
2022/05/16 03:23:45;;;;;;;7.60;4.78;;;13.50;99.90;;;;;;5115430;28;20023;-74
2022/05/16 03:26:11;;;;;;;7.82;5.03;;;13.40;99.90;;;;;;5097150;28;20409;-74
2022/05/16 03:28:37;;;;;;;7.55;4.80;;;13.30;99.90;;;;;;5115377;28;20027;-74
2022/05/16 03:31:03;;;;;;;7.45;4.22;;;13.30;99.90;;;;;;5115630;28;20024;-73
2022/05/16 03:33:29;;;;;;;5.57;4.20;;;13.30;99.90;;;;;;5115315;28;20065;-74
2022/05/16 03:35:58;;;;;;;7.05;4.18;;;13.30;99.90;;;;;;5115236;28;20463;-75
2022/05/16 03:41:13;;;;;;;8.13;5.13;;;13.40;99.90;;;;;;5115778;28;20490;-74
2022/05/16 03:43:40;;;;;;;6.90;4.63;;;13.40;99.90;;;;;;5115339;28;20386;-74
2022/05/16 03:46:07;;;;;;;7.00;4.30;;;13.40;99.90;;;;;;5096722;28;20020;-74
2022/05/16 03:48:34;;;;;;;6.63;3.95;;;13.50;99.90;;;;;;5096712;28;20073;-74
2022/05/16 03:51:00;;;;;;;5.90;3.95;;;13.50;99.90;;;;;;5115239;28;20112;-73
2022/05/16 03:53:26;;;;;;;7.10;4.28;;;13.50;99.90;;;;;;5114858;28;20063;-74
2022/05/16 03:55:52;;;;;;;6.07;4.22;;;13.50;99.90;;;;;;5114737;28;20047;-74
2022/05/16 03:58:18;;;;;;;8.70;4.63;;;13.50;99.90;;;;;;5114876;28;20028;-73
2022/05/16 04:00:44;;;;;;;7.85;4.60;;;13.50;99.90;;;;;;5092437;28;20016;-74
2022/05/16 04:03:10;;;;;;;10.13;4.82;;;13.40;99.90;;;;;;5111101;28;20024;-74
2022/05/16 04:05:36;;;;;;;6.93;4.60;;;13.40;99.90;;;;;;5104302;28;20388;-73
2022/05/16 04:08:03;;;;;;;6.18;4.60;;;13.40;99.90;;;;;;5103823;28;20474;-73
2022/05/16 04:10:28;;;;;;;5.35;4.45;;;13.30;99.90;;;;;;5113938;28;20028;-74
2022/05/16 04:12:54;;;;;;;7.72;5.07;;;13.30;99.90;;;;;;5105037;28;20034;-74
2022/05/16 04:15:21;;;;;;;6.72;4.53;;;13.40;99.90;;;;;;5101268;28;20027;-73
2022/05/16 04:17:48;;;;;;;6.90;3.88;;;13.40;99.90;;;;;;5109861;28;20027;-73
2022/05/16 04:20:15;;;;;;;6.10;4.47;;;13.50;99.90;;;;;;5105094;28;20073;-73
2022/05/16 04:22:41;;;;;;;9.05;4.70;;;13.60;99.90;;;;;;5095314;28;20077;-72
2022/05/16 04:25:13;;;;;;;6.68;4.03;;;13.60;99.90;;;;;;5105416;28;20012;-72
2022/05/16 04:27:39;;;;;;;5.85;4.00;;;13.70;99.90;;;;;;5093902;28;20106;-72
2022/05/16 04:30:06;;;;;;;5.60;4.00;;;13.70;99.90;;;;;;5109674;28;20080;-73
2022/05/16 04:32:32;;;;;;;6.13;4.70;;;13.80;99.90;;;;;;5113384;28;20027;-72
2022/05/16 04:34:57;;;;;;;5.15;3.42;;;13.80;99.90;;;;;;5113453;28;20023;-72
2022/05/16 04:37:23;;;;;;;5.22;4.05;;;13.80;99.90;;;;;;5113288;28;20391;-71
2022/05/16 04:39:49;;;;;;;7.32;4.40;;;13.80;99.90;;;;;;5113532;28;20386;-72
2022/05/16 04:44:59;;;;;;;10.18;4.75;;;13.90;99.90;;;;;;5114086;28;20188;-73
2022/05/16 04:47:26;;;;;;;7.72;4.50;;;13.90;99.90;;;;;;5113882;28;20023;-73
2022/05/16 04:49:53;;;;;;;6.32;4.50;;;13.90;99.90;;;;;;5114167;28;20024;-73
2022/05/16 04:52:19;;;;;;;7.05;4.68;;;13.90;99.90;;;;;;5113923;28;20491;-73
2022/05/16 04:54:48;;;;;;;6.53;4.60;;;14.00;99.90;;;;;;5113975;28;20478;-73
2022/05/16 04:57:14;;;;;;;8.13;5.82;;;14.00;99.90;;;;;;5113626;28;20024;-73
2022/05/16 04:59:40;;;;;;;8.02;5.82;;;14.00;99.90;;;;;;5113856;28;20028;-72
2022/05/16 05:02:05;;;;;;;7.28;5.00;;;13.90;99.90;;;;;;5113775;28;20152;-73
2022/05/16 05:04:31;;;;;;;6.85;5.35;;;13.90;99.90;;;;;;5113793;28;20492;-73
2022/05/16 05:06:57;;;;;;;5.97;4.93;;;13.80;99.90;;;;;;5113940;28;20069;-72
2022/05/16 05:09:22;;;;;;;6.68;4.70;;;13.90;99.90;;;;;;5113752;28;20020;-73
2022/05/16 05:14:34;;;;;;;6.00;4.43;;;13.90;99.90;;;;;;5114081;28;20053;-72
2022/05/16 05:17:05;;;;;;;5.97;4.18;;;14.00;99.90;;;;;;5095295;28;20506;-72
2022/05/16 05:19:32;;;;;;;6.05;4.25;;;14.10;99.90;;;;;;5113679;28;20020;-73
2022/05/16 05:21:58;;;;;;;7.10;4.47;;;14.20;99.90;;;;;;5114193;28;20030;-73
2022/05/16 05:24:24;;;;;;;7.30;4.47;;;14.20;99.90;;;;;;5095570;28;20019;-72
2022/05/16 05:26:50;;;;;;;8.15;5.07;;;14.30;99.90;;;;;;5113551;28;20020;-72
2022/05/16 05:29:19;;;;;;;5.70;4.22;;;14.40;99.90;;;;;;5113843;28;20034;-73
2022/05/16 05:31:45;;;;;;;7.65;5.10;;;14.40;99.90;;;;;;5113828;28;20486;-73
2022/05/16 05:34:11;;;;;;;9.25;5.20;;;14.50;99.90;;;;;;5113831;28;20015;-73
2022/05/16 05:36:39;;;;;;;6.72;5.22;;;14.60;99.90;;;;;;5113714;28;20058;-72
2022/05/16 05:39:05;;;;;;;7.90;4.90;;;14.70;99.90;;;;;;5113502;28;20024;-72
2022/05/16 05:41:32;;;;;;;8.63;5.70;;;14.70;99.90;;;;;;5113778;28;20063;-73
2022/05/16 05:43:58;;;;;;;9.07;6.13;;;14.70;99.90;;;;;;5117426;28;20024;-73
2022/05/16 05:46:24;;;;;;;9.85;7.25;;;14.80;99.90;;;;;;5117263;28;20020;-72
2022/05/16 05:48:50;;;;;;;9.95;7.88;;;14.80;99.90;;;;;;5117378;28;20080;-75
2022/05/16 05:51:16;;;;;;;9.98;7.82;;;14.80;99.90;;;;;;5117274;28;20048;-75
2022/05/16 05:53:42;;;;;;;9.52;6.57;;;14.80;99.90;;;;;;5123918;22;20122;-80
2022/05/16 05:56:10;;;;;;;10.35;7.18;;;14.80;99.90;;;;;;5117584;28;20024;-80
2022/05/16 05:58:36;;;;;;;9.55;7.18;;;14.90;99.90;;;;;;5117941;28;20023;-80
2022/05/16 06:01:04;;;;;;;8.07;5.97;;;14.90;99.90;;;;;;5117644;28;20044;-80
2022/05/16 06:03:30;;;;;;;11.30;8.05;;;14.90;99.90;;;;;;5118181;28;20471;-79
2022/05/16 06:05:56;;;;;;;15.90;9.65;;;14.90;99.90;;;;;;5117660;28;20023;-79
2022/05/16 06:08:22;;;;;;;13.85;7.53;;;14.90;99.90;;;;;;5117809;28;20031;-80
2022/05/16 06:10:49;;;;;;;14.73;9.63;;;14.90;99.90;;;;;;5099952;28;20039;-79
2022/05/16 06:13:16;;;;;;;12.20;8.82;;;14.90;99.90;;;;;;5099406;28;20030;-79
2022/05/16 06:15:42;;;;;;;13.77;9.30;;;14.90;99.90;;;;;;5117653;28;20031;-79
2022/05/16 06:18:08;;;;;;;11.85;8.27;;;14.90;99.90;;;;;;5117709;28;20076;-79
2022/05/16 06:20:33;;;;;;;13.55;9.18;;;15.00;99.90;;;;;;5118165;28;20027;-79
2022/05/16 06:22:59;;;;;;;14.25;9.18;;;15.00;99.90;;;;;;5117660;28;20103;-79
2022/05/16 06:25:33;;;;;;;10.05;8.45;;;15.00;99.90;;;;;;5117134;28;20047;-79
2022/05/16 06:28:01;;;;;;;13.77;8.48;;;15.10;99.90;;;;;;5098590;28;20075;-79
2022/05/16 06:30:27;;;;;;;10.40;8.23;;;15.10;99.90;;;;;;5118205;28;20401;-79
2022/05/16 06:32:53;;;;;;;14.38;9.45;;;15.20;99.90;;;;;;5119373;28;20027;-79
2022/05/16 06:35:19;;;;;;;14.20;9.70;;;15.20;99.90;;;;;;5119000;28;20020;-79
2022/05/16 06:37:45;;;;;;;21.38;11.88;;;15.30;99.90;;;;;;5117637;28;20106;-79
2022/05/16 06:40:13;;;;;;;15.48;10.63;;;15.30;99.90;;;;;;5116716;28;20050;-79
2022/05/16 06:42:38;;;;;;;10.90;8.57;;;15.40;99.90;;;;;;5098273;28;20023;-79
2022/05/16 06:45:06;;;;;;;18.02;12.00;;;15.40;99.90;;;;;;5116385;28;20497;-79
2022/05/16 06:47:31;;;;;;;12.77;9.45;;;15.50;99.90;;;;;;5116511;28;20024;-79
2022/05/16 06:49:57;;;;;;;10.55;8.63;;;15.50;99.90;;;;;;5098136;28;20024;-79
2022/05/16 06:52:24;;;;;;;11.95;8.55;;;15.60;99.90;;;;;;5097819;28;20118;-79
2022/05/16 06:54:50;;;;;;;13.52;9.38;;;15.60;99.90;;;;;;5098063;28;20043;-79
2022/05/16 06:57:16;;;;;;;15.27;10.80;;;15.70;99.90;;;;;;5116336;28;20030;-79
2022/05/16 06:59:42;;;;;;;11.70;8.93;;;15.80;99.90;;;;;;5116770;28;20016;-79
2022/05/16 07:02:08;;;;;;;13.52;9.43;;;15.80;99.90;;;;;;5116416;28;20019;-79
2022/05/16 07:04:36;;;;;;;12.40;8.60;;;15.80;99.90;;;;;;5116143;28;20043;-79
2022/05/16 07:07:04;;;;;;;10.52;8.18;;;15.90;99.90;;;;;;5116291;28;20047;-79
2022/05/16 07:09:30;;;;;;;10.57;7.80;;;15.90;99.90;;;;;;5116390;28;20019;-79
2022/05/16 07:11:56;;;;;;;8.75;6.57;;;16.00;99.90;;;;;;5116150;28;20024;-79
2022/05/16 07:14:22;;;;;;;10.10;7.22;;;16.10;99.90;;;;;;5097690;28;20024;-79
2022/05/16 07:16:47;;;;;;;14.35;7.93;;;16.10;99.90;;;;;;5097599;28;20019;-79
2022/05/16 07:19:13;;;;;;;12.43;7.22;;;16.20;99.90;;;;;;5097478;28;20015;-79
2022/05/16 07:21:39;;;;;;;11.15;7.97;;;16.20;99.90;;;;;;5115763;28;20020;-79
2022/05/16 07:24:05;;;;;;;11.82;8.45;;;16.20;99.90;;;;;;5115930;28;20024;-79
2022/05/16 07:29:15;;;;;;;11.60;8.60;;;16.30;99.90;;;;;;5115782;28;20547;-79
2022/05/16 07:31:41;;;;;;;11.15;8.73;;;16.30;99.90;;;;;;5116089;28;20055;-79
2022/05/16 07:34:06;;;;;;;11.75;8.45;;;16.50;99.90;;;;;;5115920;28;20027;-79
2022/05/16 07:36:32;;;;;;;9.70;7.93;;;16.60;99.90;;;;;;5115476;28;20023;-79
2022/05/16 07:38:58;;;;;;;10.20;7.90;;;16.60;99.90;;;;;;5097331;28;20072;-79
2022/05/16 07:41:23;;;;;;;14.02;7.55;;;16.80;99.90;;;;;;5115731;28;20019;-79
2022/05/16 07:43:49;;;;;;;10.25;6.80;;;17.10;99.90;;;;;;5096913;28;20020;-79
2022/05/16 07:46:15;;;;;;;10.93;6.53;;;17.40;99.90;;;;;;5115890;28;20057;-79
2022/05/16 07:48:42;;;;;;;11.52;6.40;;;17.50;99.90;;;;;;5115282;28;20023;-79
2022/05/16 07:51:08;;;;;;;9.90;5.18;;;17.80;99.90;;;;;;5097097;28;20039;-79
2022/05/16 07:53:34;;;;;;;11.82;6.25;;;18.00;99.90;;;;;;5097137;28;20031;-79
2022/05/16 07:56:00;;;;;;;9.43;6.20;;;18.20;99.90;;;;;;5097199;28;20059;-79
2022/05/16 07:58:26;;;;;;;8.15;6.28;;;18.30;99.90;;;;;;5097514;28;20028;-79
2022/05/16 08:00:52;;;;;;;16.95;8.65;;;18.50;99.90;;;;;;5096951;28;20020;-79
2022/05/16 08:03:21;;;;;;;11.43;9.40;;;18.70;99.90;;;;;;5115387;28;20039;-79
2022/05/16 08:05:47;;;;;;;12.90;9.02;;;18.80;99.90;;;;;;5114502;28;20093;-79
2022/05/16 08:10:59;;;;;;;15.65;9.02;;;19.10;99.90;;;;;;5115413;28;20034;-79
2022/05/16 08:13:25;;;;;;;10.50;7.88;;;19.30;99.90;;;;;;5114942;28;20112;-79
2022/05/16 08:15:51;;;;;;;12.38;7.93;;;19.40;99.90;;;;;;5115296;28;20024;-79
2022/05/16 08:18:16;;;;;;;8.63;5.93;;;19.60;99.90;;;;;;5115831;28;20020;-80
2022/05/16 08:20:44;;;;;;;9.70;6.97;;;19.80;99.90;;;;;;5115221;28;20379;-80
2022/05/16 08:23:17;;;;;;;9.32;6.30;;;19.90;99.90;;;;;;5114871;28;20012;-80
2022/05/16 08:25:44;;;;;;;8.98;6.68;;;20.00;99.90;;;;;;5096281;28;20486;-79
2022/05/16 08:28:09;;;;;;;8.98;5.72;;;20.10;99.90;;;;;;5114917;28;20042;-79
2022/05/16 08:30:35;;;;;;;8.07;6.00;;;20.30;99.50;;;;;;5114681;28;20482;-79
2022/05/16 08:33:01;;;;;;;13.32;7.80;;;20.50;99.40;;;;;;5115100;28;20089;-79
2022/05/16 08:35:28;;;;;;;11.35;8.27;;;20.60;99.70;;;;;;5114391;28;20032;-79
2022/05/16 08:41:04;;;;;;;9.95;7.50;;;20.60;98.90;;;;;;5115093;28;20038;-79
2022/05/16 08:44:02;;;;;;;10.77;8.13;;;20.50;99.60;;;;;;5114820;28;20020;-79
2022/05/16 08:46:46;;;;;;;14.45;9.15;;;20.60;99.20;;;;;;5115152;28;20051;-79
2022/05/16 08:49:39;;;;;;;15.48;8.43;;;20.60;99.40;;;;;;5096203;28;20026;-80
2022/05/16 08:52:26;;;;;;;10.88;8.57;;;20.80;99.90;;;;;;5096948;28;20092;-79
2022/05/16 08:55:14;;;;;;;12.80;8.32;;;21.10;99.90;;;;;;5114706;28;20437;-79
2022/05/16 08:58:04;;;;;;;9.05;6.10;;;21.20;99.90;;;;;;5114121;28;20028;-79
2022/05/16 09:00:54;;;;;;;9.15;6.47;;;21.40;98.40;;;;;;5113967;28;20050;-80
2022/05/16 09:03:54;;;;;;;7.85;5.28;;;21.70;97.30;;;;;;5114541;28;20030;-80
2022/05/16 09:06:49;;;;;;;8.73;4.97;;;22.00;95.30;;;;;;5080757;28;20114;-79
2022/05/16 09:09:19;;;;;;;11.05;5.28;;;22.00;94.40;;;;;;5078146;28;20032;-79
2022/05/16 09:12:02;;;;;;;8.20;4.80;;;22.10;95.10;;;;;;5114044;28;20076;-79
2022/05/16 09:14:43;;;;;;;7.95;4.40;;;22.10;95.30;;;;;;5114013;28;20019;-79
2022/05/16 09:17:19;;;;;;;6.47;5.05;;;22.10;94.80;;;;;;5098728;28;20024;-79
2022/05/16 09:20:03;;;;;;;4.57;3.70;;;22.20;93.70;;;;;;5118280;28;20031;-79
2022/05/16 09:22:42;;;;;;;6.68;3.90;;;22.30;92.50;;;;;;5118219;28;20046;-79
2022/05/16 09:25:22;;;;;;;6.63;4.10;;;22.40;91.70;;;;;;5118012;28;20149;-79
2022/05/16 09:30:41;;;;;;;8.52;4.10;;;22.60;90.90;;;;;;5118428;28;20053;-79
2022/05/16 09:33:11;;;;;;;9.63;4.20;;;22.60;91.50;;;;;;5117854;28;20068;-79
2022/05/16 09:35:37;;;;;;;12.45;4.45;;;22.70;90.00;;;;;;5117957;28;20031;-79
2022/05/16 09:38:04;;;;;;;6.18;4.13;;;22.90;91.30;;;;;;5117620;28;20024;-79
2022/05/16 09:40:39;;;;;;;7.65;3.90;;;23.00;88.90;;;;;;5118035;28;20031;-79
2022/05/16 09:43:16;;;;;;;7.72;3.30;;;23.10;88.30;;;;;;5118192;28;20030;-80
2022/05/16 09:45:49;;;;;;;5.60;2.88;;;23.20;85.60;;;;;;5117726;28;20023;-79
2022/05/16 09:48:21;;;;;;;7.30;2.88;;;23.40;84.80;;;;;;5118024;28;20375;-79
2022/05/16 09:51:02;;;;;;;8.30;3.03;;;23.70;81.70;;;;;;5117921;28;20471;-79
2022/05/16 09:53:43;;;;;;;6.00;2.80;;;24.00;84.90;;;;;;5099335;28;20042;-79
2022/05/16 09:56:24;;;;;;;9.57;3.60;;;24.30;78.50;;;;;;5117447;28;20094;-79
2022/05/16 09:58:56;;;;;;;4.55;2.65;;;24.40;75.80;;;;;;5099539;28;20164;-79
2022/05/16 10:01:35;;;;;;;5.85;2.38;;;24.70;76.30;;;;;;5117854;28;20011;-79
2022/05/16 10:04:12;;;;;;;5.68;2.65;;;24.80;73.30;;;;;;5117816;28;20023;-79
2022/05/16 10:06:42;;;;;;;6.97;2.95;;;24.80;68.50;;;;;;5117068;28;20497;-79
2022/05/16 10:09:24;;;;;;;9.25;2.33;;;24.70;72.70;;;;;;5117514;28;20027;-79
2022/05/16 10:11:51;;;;;;;5.13;2.40;;;24.80;68.80;;;;;;5118825;28;20027;-79
2022/05/16 10:14:17;;;;;;;5.15;2.30;;;24.70;69.70;;;;;;5101207;28;20032;-79
2022/05/16 10:16:47;;;;;;;4.63;2.70;;;24.70;69.40;;;;;;5119266;28;20030;-79
2022/05/16 10:19:18;;;;;;;3.97;2.70;;;24.70;71.20;;;;;;5118080;28;20020;-79
2022/05/16 10:21:50;;;;;;;;;;;24.70;69.60;;;;;;5099353;28;20447;-79
2022/05/16 10:24:16;;;;;;;4.93;2.40;;;24.60;71.70;;;;;;5117008;28;19904;-79
2022/05/16 10:26:44;;;;;;;5.07;2.60;;;24.70;71.80;;;;;;5117098;28;20076;-79
2022/05/16 10:29:31;;;;;;;6.85;2.50;;;24.70;68.70;;;;;;5116297;28;20072;-79
2022/05/16 10:35:18;;;;;;;8.07;2.55;;;24.80;68.80;;;;;;5117070;28;20097;-80
2022/05/16 10:37:46;;;;;;;3.08;2.38;;;24.80;70.20;;;;;;5098263;28;20020;-79
2022/05/16 10:40:37;;;;;;;8.57;3.00;;;24.70;69.40;;;;;;5116722;28;20046;-80
2022/05/16 10:43:32;;;;;;;13.93;2.67;;;24.70;69.00;;;;;;5117203;28;20073;-79
2022/05/16 10:46:08;;;;;;;6.40;2.75;;;24.70;69.20;;;;;;5026041;28;20125;-79
2022/05/16 10:48:45;;;;;;;4.47;2.72;;;24.70;70.40;;;;;;5118508;28;20020;-79
2022/05/16 10:51:19;;;;;;;6.18;2.70;;;24.70;69.30;;;;;;5116620;28;20024;-79
2022/05/16 10:54:08;;;;;;;4.35;2.42;;;24.50;68.70;;;;;;5098250;28;20066;-79
2022/05/16 10:57:07;;;;;;;4.10;2.53;;;24.10;69.90;;;;;;5116094;28;20035;-79
2022/05/16 10:59:46;;;;;;;6.50;2.53;;;24.00;70.50;;;;;;5116109;28;20020;-79
2022/05/16 11:02:49;;;;;;;20.10;3.70;;;23.80;70.10;;;;;;5116653;28;20045;-79
2022/05/16 11:05:42;;;;;;;5.15;2.63;;;23.40;70.60;;;;;;5115851;28;20071;-79
2022/05/16 11:08:41;;;;;;;4.35;2.58;;;23.30;71.80;;;;;;5116158;28;20038;-79
2022/05/16 11:11:37;;;;;;;4.22;2.30;;;23.30;73.10;;;;;;5094375;28;20047;-79
2022/05/16 11:14:27;;;;;;;3.67;2.40;;;23.10;71.20;;;;;;5071226;28;20398;-79
2022/05/16 11:16:59;;;;;;;6.05;2.42;;;22.90;70.70;;;;;;5115631;28;20063;-79
2022/05/16 11:19:48;;;;;;;18.77;3.22;;;22.80;70.70;;;;;;5115987;28;20513;-79
2022/05/16 11:22:29;;;;;;;4.00;2.20;;;22.70;72.00;;;;;;5115105;28;20032;-78
2022/05/16 11:25:13;;;;;;;5.47;2.60;;;22.50;72.50;;;;;;5117987;28;20020;-79
2022/05/16 11:28:00;;;;;;;4.68;2.28;;;22.50;72.70;;;;;;5117181;27;20476;-79
2022/05/16 11:30:38;;;;;;;6.40;2.50;;;22.40;75.00;;;;;;5116935;27;20502;-79
2022/05/16 11:33:03;;;;;;;9.52;2.72;;;22.40;76.00;;;;;;5126246;27;20024;-79
2022/05/16 11:35:50;;;;;;;4.68;2.10;;;22.30;75.90;;;;;;5115283;28;20042;-79
2022/05/16 11:38:37;;;;;;;3.83;2.42;;;22.30;75.60;;;;;;5112396;28;20032;-79
2022/05/16 11:41:15;;;;;;;4.93;1.92;;;22.10;80.60;;;;;;5111994;28;20139;-79
2022/05/16 11:43:43;;;;;;;5.32;2.30;;;22.00;80.60;;;;;;5114779;28;20024;-79
2022/05/16 11:46:39;;;;;;;6.50;2.20;;;21.80;78.70;;;;;;5111111;28;20054;-79
2022/05/16 11:49:33;;;;;;;3.53;2.40;;;21.70;79.60;;;;;;5098579;28;20439;-79
2022/05/16 11:52:30;;;;;;;4.85;2.90;;;21.60;78.30;;;;;;5099773;28;20030;-79
2022/05/16 12:00:31;;;;;;;9.40;2.83;;;21.50;77.50;;;;;;5095097;28;20425;-79
2022/05/16 12:00:59;;;;;;;16.85;2.75;;;21.10;84.80;;;;;;5109655;28;20081;-79
2022/05/16 12:03:35;;;;;;;4.65;2.00;;;20.80;86.80;;;;;;5115640;28;20023;-80
2022/05/16 12:06:33;;;;;;;5.60;2.10;;;20.40;89.40;;;;;;5101751;27;20026;-80
2022/05/16 12:09:19;;;;;;;9.85;2.58;;;20.00;91.50;;;;;;5093596;28;20031;-79
2022/05/16 12:12:08;;;;;;;5.80;2.20;;;19.60;92.00;;;;;;5097890;28;20020;-80
2022/05/16 12:14:35;;;;;;;4.10;2.17;;;19.20;93.40;;;;;;5102963;28;20387;-79
2022/05/16 12:17:06;;;;;;;4.68;2.15;;;18.80;95.10;;;;;;5105382;28;20074;-80
2022/05/16 12:19:38;;;;;;;3.90;2.10;;;18.60;96.70;;;;;;5107388;28;20012;-80
2022/05/16 12:22:32;;;;;;;3.40;1.90;;;18.40;98.20;;;;;;5106726;28;20018;-80
2022/05/16 12:25:12;;;;;;;11.25;3.00;;;18.30;99.90;;;;;;5111544;28;20023;-81
2022/05/16 12:27:44;;;;;;;6.13;2.22;;;18.30;99.90;;;;;;5099136;28;20020;-79
2022/05/16 12:30:38;;;;;;;3.45;2.20;;;18.10;99.90;;;;;;5097483;28;20547;-79
2022/05/16 12:33:29;;;;;;;4.05;1.85;;;18.00;99.90;;;;;;5099385;28;20503;-80
2022/05/16 12:35:55;;;;;;;5.07;2.22;;;17.80;99.90;;;;;;5089748;28;20074;-80
2022/05/16 12:38:25;;;;;;;5.05;2.10;;;17.60;99.90;;;;;;5114206;28;20514;-80
2022/05/16 12:41:38;;;;;;;5.43;2.20;;;17.50;99.90;;;;;;5114480;28;20043;-81
2022/05/16 12:44:23;;;;;;;3.97;2.13;;;17.40;99.90;;;;;;5110197;28;20361;-81
2022/05/16 12:47:18;;;;;;;5.28;1.88;;;17.30;99.90;;;;;;5110964;27;20023;-78
2022/05/16 12:49:44;;;;;;;7.90;3.15;;;17.20;99.90;;;;;;5116731;28;20102;-78
2022/05/16 12:52:29;;;;;;;6.68;4.25;;;17.00;99.90;;;;;;5107105;28;20027;-78
2022/05/16 12:55:31;;;;;;;6.07;2.85;;;16.80;99.90;;;;;;5109967;28;20483;-78
2022/05/16 12:58:14;;;;;;;4.63;2.60;;;16.80;99.90;;;;;;5106124;28;20032;-78
2022/05/16 13:01:26;;;;;;;4.45;2.10;;;16.60;99.90;;;;;;5105410;28;20046;-78
2022/05/16 13:04:01;;;;;;;4.65;2.00;;;16.40;99.90;;;;;;5082396;28;20057;-79
2022/05/16 13:06:46;;;;;;;4.05;2.00;;;16.30;99.90;;;;;;5099860;28;20477;-79
2022/05/16 13:09:37;;;;;;;3.13;1.85;;;16.20;99.90;;;;;;5110798;28;20020;-79
2022/05/16 13:12:23;;;;;;;;;;;16.00;99.90;;;;;;5106974;28;20537;-78
2022/05/16 13:15:00;;;;;;;4.70;2.05;;;15.90;99.90;;;;;;5108690;28;20299;-78
2022/05/16 13:17:52;;;;;;;4.25;2.00;;;15.90;99.90;;;;;;5107685;28;20077;-78
2022/05/16 13:20:24;;;;;;;2.75;2.00;;;15.90;99.90;;;;;;5095905;28;20020;-78
2022/05/16 13:22:50;;;;;;;;;;;16.00;99.90;;;;;;5095538;28;20080;-79
2022/05/16 13:25:18;;;;;;;4.78;2.40;;;16.20;99.90;;;;;;5113477;28;20002;-78
2022/05/16 13:30:35;;;;;;;6.13;3.35;;;16.50;99.90;;;;;;5114806;28;20038;-78
2022/05/16 13:33:01;;;;;;;5.00;2.78;;;16.60;99.90;;;;;;5114777;28;20020;-79
2022/05/16 13:35:37;;;;;;;7.32;2.50;;;16.80;99.90;;;;;;5112138;28;20460;-79
2022/05/16 13:38:07;;;;;;;4.63;2.22;;;16.80;99.90;;;;;;5135293;28;20027;-79
2022/05/16 13:40:44;;;;;;;4.97;2.08;;;16.90;99.90;;;;;;5138314;28;20019;-79
2022/05/16 13:43:26;;;;;;;3.28;2.25;;;16.90;99.90;;;;;;5123898;28;20034;-79
2022/05/16 13:46:08;;;;;;;3.90;2.17;;;16.90;99.90;;;;;;5113450;28;20076;-79